createdAt,value
2024-01-18T00:01:50.824Z,89.96
2024-01-18T00:04:18.653Z,89.46
2024-01-18T00:06:46.680Z,90.01
2024-01-18T00:09:14.888Z,89.74
2024-01-18T00:11:42.727Z,89.82
2024-01-18T00:14:10.708Z,90.15
2024-01-18T00:16:41.251Z,90.22
2024-01-18T00:19:12.902Z,90.38
2024-01-18T00:21:41.112Z,89.89
2024-01-18T00:24:12.035Z,89.87
2024-01-18T00:26:39.850Z,90.17
2024-01-18T00:29:09.763Z,90.30
2024-01-18T00:31:38.893Z,89.48
2024-01-18T00:34:06.714Z,89.90
2024-01-18T00:36:34.556Z,90.10
2024-01-18T00:39:04.841Z,90.10
2024-01-18T00:41:33.558Z,90.12
2024-01-18T00:44:01.313Z,89.67
2024-01-18T00:46:29.119Z,89.89
2024-01-18T00:48:58.313Z,89.92
2024-01-18T00:51:26.215Z,90.33
2024-01-18T00:53:54.254Z,90.97
2024-01-18T00:56:22.047Z,90.39
2024-01-18T00:58:50.960Z,90.65
2024-01-18T01:01:19.056Z,90.88
2024-01-18T01:03:46.869Z,90.90
2024-01-18T01:06:16.110Z,91.42
2024-01-18T01:08:43.865Z,91.05
2024-01-18T01:11:11.657Z,90.84
2024-01-18T01:13:39.423Z,90.70
2024-01-18T01:16:07.961Z,91.02
2024-01-18T01:18:35.866Z,91.13
2024-01-18T01:21:03.726Z,91.58
2024-01-18T01:23:33.132Z,91.37
2024-01-18T01:26:02.489Z,91.29
2024-01-18T01:28:30.173Z,90.94
2024-01-18T01:30:57.953Z,91.32
2024-01-18T01:33:25.874Z,90.71
2024-01-18T01:35:54.065Z,90.65
2024-01-18T01:38:21.885Z,90.70
2024-01-18T01:40:51.886Z,91.38
2024-01-18T01:43:19.726Z,90.98
2024-01-18T01:45:47.519Z,91.58
2024-01-18T01:48:17.150Z,91.45
2024-01-18T01:50:45.035Z,91.09
2024-01-18T01:53:14.574Z,90.79
2024-01-18T01:55:45.058Z,90.83
2024-01-18T01:58:16.597Z,90.83
2024-01-18T02:00:45.465Z,91.47
2024-01-18T02:03:15.608Z,91.21
2024-01-18T02:05:44.190Z,90.75
2024-01-18T02:08:12.498Z,90.94
2024-01-18T02:10:40.704Z,91.09
2024-01-18T02:13:09.197Z,91.28
2024-01-18T02:15:38.506Z,91.25
2024-01-18T02:18:06.916Z,91.33
2024-01-18T02:20:34.812Z,91.27
2024-01-18T02:23:08.403Z,91.38
2024-01-18T02:25:37.865Z,90.77
2024-01-18T02:28:08.037Z,90.56
2024-01-18T02:30:35.836Z,90.91
2024-01-18T02:33:03.890Z,91.21
2024-01-18T02:35:31.813Z,90.54
2024-01-18T02:37:59.680Z,90.84
2024-01-18T02:40:27.540Z,90.80
2024-01-18T02:42:56.850Z,90.71
2024-01-18T02:45:26.506Z,91.23
2024-01-18T02:47:54.367Z,90.91
2024-01-18T02:50:22.262Z,90.89
2024-01-18T02:52:50.035Z,91.00
2024-01-18T02:55:18.994Z,90.87
2024-01-18T02:57:46.954Z,90.99
2024-01-18T03:00:19.265Z,91.35
2024-01-18T03:02:47.253Z,90.80
2024-01-18T03:05:15.136Z,90.97
2024-01-18T03:07:42.914Z,90.70
2024-01-18T03:10:11.040Z,90.76
2024-01-18T03:12:39.411Z,91.56
2024-01-18T03:15:11.578Z,90.81
2024-01-18T03:17:40.842Z,91.04
2024-01-18T03:20:12.676Z,90.69
2024-01-18T03:22:41.931Z,90.99
2024-01-18T03:25:10.197Z,91.24
2024-01-18T03:27:38.017Z,90.92
2024-01-18T03:30:11.221Z,91.41
2024-01-18T03:32:40.345Z,91.46
2024-01-18T03:35:09.653Z,91.69
2024-01-18T03:37:37.667Z,90.84
2024-01-18T03:40:06.517Z,91.76
2024-01-18T03:42:34.344Z,91.18
2024-01-18T03:45:02.352Z,91.59
2024-01-18T03:47:30.142Z,90.96
2024-01-18T03:49:59.279Z,91.00
2024-01-18T03:52:27.052Z,91.22
2024-01-18T03:54:54.969Z,91.50
2024-01-18T03:57:22.673Z,91.12
2024-01-18T03:59:50.577Z,91.29
2024-01-18T04:02:18.273Z,91.57
2024-01-18T04:04:45.944Z,91.90
2024-01-18T04:07:16.284Z,91.35
2024-01-18T04:09:44.008Z,91.85
2024-01-18T04:12:11.832Z,91.55
2024-01-18T04:14:41.937Z,91.76
2024-01-18T04:17:11.251Z,91.37
2024-01-18T04:19:39.070Z,92.57
2024-01-18T04:22:06.881Z,92.63
2024-01-18T04:24:36.659Z,92.31
2024-01-18T04:27:04.733Z,91.85
2024-01-18T04:29:32.960Z,92.39
2024-01-18T04:32:00.646Z,92.14
2024-01-18T04:34:28.411Z,91.77
2024-01-18T04:36:56.250Z,91.97
2024-01-18T04:39:23.975Z,91.85
2024-01-18T04:41:53.165Z,92.07
2024-01-18T04:44:20.900Z,91.43
2024-01-18T04:46:48.651Z,92.23
2024-01-18T04:49:16.956Z,91.97
2024-01-18T04:51:44.779Z,91.91
2024-01-18T04:54:12.666Z,91.81
2024-01-18T04:56:40.401Z,91.35
2024-01-18T04:59:10.665Z,91.38
2024-01-18T05:01:41.006Z,91.60
2024-01-18T05:04:09.186Z,91.66
2024-01-18T05:06:37.349Z,91.92
2024-01-18T05:09:05.250Z,92.17
2024-01-18T05:11:32.974Z,92.01
2024-01-18T05:14:00.710Z,92.02
2024-01-18T05:16:31.199Z,91.13
2024-01-18T05:18:58.991Z,91.38
2024-01-18T05:21:26.754Z,91.69
2024-01-18T05:23:55.395Z,91.38
2024-01-18T05:26:23.127Z,91.35
2024-01-18T05:28:50.803Z,91.28
2024-01-18T05:31:18.883Z,91.59
2024-01-18T05:33:48.043Z,91.60
2024-01-18T05:36:15.832Z,91.83
2024-01-18T05:38:43.608Z,91.78
2024-01-18T05:41:11.258Z,91.68
2024-01-18T05:43:39.056Z,91.59
2024-01-18T05:46:09.481Z,91.57
2024-01-18T05:48:37.345Z,91.92
2024-01-18T05:51:06.963Z,90.85
2024-01-18T05:53:34.944Z,91.24
2024-01-18T05:56:02.695Z,91.29
2024-01-18T05:58:32.719Z,91.22
2024-01-18T06:01:03.104Z,90.88
2024-01-18T06:03:30.914Z,90.68
2024-01-18T06:05:59.629Z,91.49
2024-01-18T06:08:28.952Z,91.30
2024-01-18T06:10:56.732Z,90.69
2024-01-18T06:13:26.704Z,90.61
2024-01-18T06:15:56.897Z,90.50
2024-01-18T06:18:25.084Z,90.50
2024-01-18T06:20:53.226Z,90.65
2024-01-18T06:23:21.357Z,90.60
2024-01-18T06:25:50.718Z,90.84
2024-01-18T06:28:18.831Z,90.84
2024-01-18T06:30:47.094Z,90.99
2024-01-18T06:33:15.306Z,91.33
2024-01-18T06:35:43.455Z,90.71
2024-01-18T06:38:11.252Z,90.77
2024-01-18T06:40:41.256Z,91.20
2024-01-18T06:43:14.130Z,91.02
2024-01-18T06:45:42.165Z,91.09
2024-01-18T06:48:12.999Z,91.37
2024-01-18T06:50:41.131Z,91.71
2024-01-18T06:53:11.947Z,91.53
2024-01-18T06:55:41.454Z,91.29
2024-01-18T06:58:10.027Z,91.44
2024-01-18T07:00:39.710Z,91.18
2024-01-18T07:03:09.765Z,91.28
2024-01-18T07:05:38.194Z,91.16
2024-01-18T07:08:07.815Z,91.58
2024-01-18T07:10:35.813Z,91.31
2024-01-18T07:13:03.937Z,91.02
2024-01-18T07:15:31.928Z,91.37
2024-01-18T07:18:01.447Z,91.70
2024-01-18T07:20:29.719Z,90.84
2024-01-18T07:22:57.746Z,90.85
2024-01-18T07:25:25.899Z,90.62
2024-01-18T07:27:53.839Z,90.74
2024-01-18T07:30:23.313Z,90.98
2024-01-18T07:32:51.587Z,90.64
2024-01-18T07:35:21.220Z,90.23
2024-01-18T07:37:49.503Z,90.70
2024-01-18T07:40:17.756Z,90.37
2024-01-18T07:42:46.356Z,90.61
2024-01-18T07:45:16.039Z,90.62
2024-01-18T07:47:45.570Z,90.77
2024-01-18T07:50:24.880Z,90.79
2024-01-18T07:53:03.378Z,90.59
2024-01-18T07:55:31.726Z,90.68
2024-01-18T07:57:59.661Z,90.37
2024-01-18T08:00:27.808Z,90.88
2024-01-18T08:02:56.006Z,90.97
2024-01-18T08:05:25.663Z,91.42
2024-01-18T08:07:53.829Z,92.10
2024-01-18T08:10:24.714Z,92.41
2024-01-18T08:12:54.321Z,92.39
2024-01-18T08:15:22.961Z,93.11
2024-01-18T08:17:51.469Z,92.46
2024-01-18T08:20:19.450Z,92.50
2024-01-18T08:22:47.393Z,91.44
2024-01-18T08:25:15.453Z,91.77
2024-01-18T08:27:48.967Z,91.46
2024-01-18T08:30:17.543Z,91.38
2024-01-18T08:32:46.297Z,91.13
2024-01-18T08:35:14.440Z,91.60
2024-01-18T08:37:42.502Z,91.26
2024-01-18T08:40:16.222Z,91.28
2024-01-18T08:42:47.482Z,91.87
2024-01-18T08:45:15.772Z,91.52
2024-01-18T08:47:43.739Z,91.53
2024-01-18T08:50:11.603Z,91.12
2024-01-18T08:52:39.613Z,90.77
2024-01-18T08:55:08.665Z,90.95
2024-01-18T08:57:36.925Z,89.99
2024-01-18T09:00:07.909Z,90.17
2024-01-18T09:02:36.489Z,90.04
2024-01-18T09:05:04.825Z,89.59
2024-01-18T09:07:32.841Z,89.41
2024-01-18T09:10:00.890Z,89.46
2024-01-18T09:12:28.911Z,88.99
2024-01-18T09:14:56.975Z,88.81
2024-01-18T09:17:26.662Z,89.08
2024-01-18T09:19:55.920Z,89.13
2024-01-18T09:22:24.042Z,89.19
2024-01-18T09:24:55.030Z,89.52
2024-01-18T09:27:25.053Z,89.21
2024-01-18T09:29:53.077Z,89.94
2024-01-18T09:32:21.499Z,89.40
2024-01-18T09:34:50.930Z,90.06
2024-01-18T09:37:20.101Z,90.35
2024-01-18T09:39:48.105Z,89.68
2024-01-18T09:42:19.347Z,89.86
2024-01-18T09:44:49.011Z,90.32
2024-01-18T09:47:17.780Z,89.46
2024-01-18T09:49:47.651Z,89.21
2024-01-18T09:52:18.411Z,90.61
2024-01-18T09:54:46.374Z,90.77
2024-01-18T09:57:16.111Z,91.24
2024-01-18T09:59:46.311Z,92.05
2024-01-18T10:02:14.464Z,92.49
2024-01-18T10:04:43.645Z,92.68
2024-01-18T10:07:11.784Z,93.35
2024-01-18T10:09:41.307Z,92.86
2024-01-18T10:12:14.458Z,94.00
2024-01-18T10:14:43.795Z,93.35
2024-01-18T10:17:12.294Z,93.53
2024-01-18T10:19:40.286Z,94.73
2024-01-18T10:22:08.873Z,93.22
2024-01-18T10:24:42.334Z,94.33
2024-01-18T10:27:10.423Z,93.60
2024-01-18T10:29:38.440Z,94.27
2024-01-18T10:32:08.695Z,94.71
2024-01-18T10:34:37.941Z,94.59
2024-01-18T10:37:07.003Z,93.85
2024-01-18T10:39:48.391Z,93.32
2024-01-18T10:42:17.135Z,93.37
2024-01-18T10:47:37.873Z,93.39
2024-01-18T10:50:11.343Z,93.61
2024-01-18T10:52:39.888Z,93.13
2024-01-18T10:55:13.613Z,93.44
2024-01-18T10:57:42.280Z,93.56
2024-01-18T11:00:17.141Z,93.34
2024-01-18T11:02:46.027Z,93.04
2024-01-18T11:05:18.735Z,92.56
2024-01-18T11:07:48.970Z,92.30
2024-01-18T11:10:18.376Z,91.34
2024-01-18T11:12:50.464Z,91.26
2024-01-18T11:15:21.636Z,91.61
2024-01-18T11:17:51.988Z,91.79
2024-01-18T11:20:20.731Z,92.05
2024-01-18T11:22:49.067Z,91.97
2024-01-18T11:25:30.163Z,92.38
2024-01-18T11:28:00.272Z,92.06
2024-01-18T11:30:38.080Z,91.43
2024-01-18T11:33:09.197Z,91.10
2024-01-18T11:35:38.106Z,90.76
2024-01-18T11:38:25.309Z,90.86
2024-01-18T11:40:58.316Z,91.19
2024-01-18T11:43:27.075Z,91.60
2024-01-18T11:45:57.356Z,91.40
2024-01-18T11:48:25.763Z,91.25
2024-01-18T11:50:54.092Z,91.24
2024-01-18T11:53:22.212Z,90.95
2024-01-18T11:55:52.753Z,90.94
2024-01-18T11:58:22.279Z,90.94
2024-01-18T12:00:50.571Z,90.48
2024-01-18T12:03:19.146Z,90.55
2024-01-18T12:05:49.269Z,90.65
2024-01-18T12:08:17.238Z,90.18
2024-01-18T12:10:47.274Z,90.17
2024-01-18T12:13:16.565Z,89.86
2024-01-18T12:15:47.323Z,89.83
2024-01-18T12:18:15.446Z,89.89
2024-01-18T12:20:45.630Z,90.00
2024-01-18T12:23:17.705Z,89.57
2024-01-18T12:25:46.125Z,89.41
2024-01-18T12:28:14.200Z,89.51
2024-01-18T12:30:44.799Z,89.02
2024-01-18T12:33:16.421Z,89.63
2024-01-18T12:35:47.444Z,88.94
2024-01-18T12:38:15.922Z,89.13
2024-01-18T12:40:44.072Z,89.27
2024-01-18T12:43:12.416Z,89.97
2024-01-18T12:45:43.956Z,89.35
2024-01-18T12:48:12.858Z,89.53
2024-01-18T12:50:42.952Z,89.91
2024-01-18T12:53:11.492Z,89.59
2024-01-18T12:55:39.652Z,89.58
2024-01-18T12:58:08.850Z,89.19
2024-01-18T13:00:37.297Z,88.57
2024-01-18T13:03:15.364Z,88.84
2024-01-18T13:05:46.217Z,88.81
2024-01-18T13:08:18.156Z,88.73
2024-01-18T13:10:47.257Z,87.93
2024-01-18T13:13:16.828Z,87.40
2024-01-18T13:15:45.622Z,88.66
2024-01-18T13:18:15.168Z,87.68
2024-01-18T13:20:45.373Z,87.49
2024-01-18T13:23:15.271Z,87.58
2024-01-18T13:25:43.399Z,87.74
2024-01-18T13:28:12.594Z,87.74
2024-01-18T13:30:40.530Z,87.29
2024-01-18T13:33:11.427Z,86.09
2024-01-18T13:35:40.046Z,87.19
2024-01-18T13:38:09.680Z,86.17
2024-01-18T13:40:39.719Z,86.52
2024-01-18T13:43:07.787Z,86.72
2024-01-18T13:45:35.791Z,85.86
2024-01-18T13:48:03.946Z,86.11
2024-01-18T13:50:32.588Z,86.96
2024-01-18T13:53:00.661Z,85.74
2024-01-18T13:55:31.851Z,86.30
2024-01-18T13:58:01.552Z,85.64
2024-01-18T14:00:29.760Z,84.94
2024-01-18T14:02:57.754Z,85.82
2024-01-18T14:05:28.639Z,85.74
2024-01-18T14:07:57.300Z,85.75
2024-01-18T14:10:25.299Z,86.57
2024-01-18T14:12:53.675Z,85.76
2024-01-18T14:15:23.100Z,84.93
2024-01-18T14:17:51.025Z,85.02
2024-01-18T14:20:19.029Z,84.96
2024-01-18T14:22:47.262Z,86.48
2024-01-18T14:25:15.186Z,86.49
2024-01-18T14:27:43.307Z,85.97
2024-01-18T14:30:12.628Z,86.42
2024-01-18T14:32:42.323Z,84.96
2024-01-18T14:35:10.704Z,86.07
2024-01-18T14:37:38.803Z,85.65
2024-01-18T14:40:08.120Z,85.49
2024-01-18T14:42:36.287Z,85.70
2024-01-18T14:45:05.210Z,85.06
2024-01-18T14:47:33.189Z,85.14
2024-01-18T14:50:03.529Z,84.81
2024-01-18T14:52:31.451Z,84.72
2024-01-18T14:54:58.541Z,84.97
2024-01-18T14:57:26.615Z,84.09
2024-01-18T14:59:54.583Z,84.87
2024-01-18T15:02:22.745Z,85.33
2024-01-18T15:04:50.773Z,84.35
2024-01-18T15:07:20.177Z,85.29
2024-01-18T15:09:48.141Z,86.26
2024-01-18T15:12:16.172Z,86.12
2024-01-18T15:14:44.119Z,85.79
2024-01-18T15:17:12.020Z,86.01
2024-01-18T15:19:43.465Z,86.56
2024-01-18T15:22:11.501Z,86.18
2024-01-18T15:24:40.861Z,86.94
2024-01-18T15:27:09.158Z,87.21
2024-01-18T15:29:39.367Z,86.92
2024-01-18T15:32:07.840Z,87.09
2024-01-18T15:34:36.243Z,87.09
2024-01-18T15:37:04.653Z,86.76
2024-01-18T15:39:32.844Z,87.20
2024-01-18T15:42:02.261Z,86.68
2024-01-18T15:44:31.416Z,86.64
2024-01-18T15:47:04.912Z,86.34
2024-01-18T15:49:33.586Z,85.97
2024-01-18T15:52:03.701Z,86.58
2024-01-18T15:54:32.097Z,87.17
2024-01-18T15:57:00.671Z,87.20
2024-01-18T15:59:29.945Z,85.24
2024-01-18T16:01:57.985Z,87.58
2024-01-18T16:04:25.865Z,87.47
2024-01-18T16:06:53.988Z,87.35
2024-01-18T16:09:21.965Z,86.71
2024-01-18T16:11:49.876Z,87.11
2024-01-18T16:14:17.686Z,87.43
2024-01-18T16:16:46.863Z,87.10
2024-01-18T16:19:20.312Z,86.89
2024-01-18T16:21:49.520Z,87.14
2024-01-18T16:24:18.882Z,86.95
2024-01-18T16:26:47.198Z,87.35
2024-01-18T16:29:15.432Z,87.17
2024-01-18T16:31:44.047Z,87.48
2024-01-18T16:34:13.773Z,87.66
2024-01-18T16:36:41.868Z,87.82
2024-01-18T16:39:10.335Z,87.11
2024-01-18T16:41:38.264Z,87.58
2024-01-18T16:44:07.013Z,87.87
2024-01-18T16:46:36.182Z,87.37
2024-01-18T16:49:04.832Z,87.55
2024-01-18T16:51:35.202Z,87.44
2024-01-18T16:54:04.427Z,88.35
2024-01-18T16:56:33.579Z,87.61
2024-01-18T16:59:02.039Z,87.90
2024-01-18T17:01:30.145Z,87.81
2024-01-18T17:03:58.122Z,86.77
2024-01-18T17:06:26.866Z,87.65
2024-01-18T17:08:56.460Z,88.38
2024-01-18T17:11:24.474Z,87.74
2024-01-18T17:13:52.433Z,87.58
2024-01-18T17:16:20.330Z,87.40
2024-01-18T17:18:48.425Z,87.24
2024-01-18T17:21:16.714Z,86.34
2024-01-18T17:23:44.756Z,86.36
2024-01-18T17:26:14.197Z,86.13
2024-01-18T17:28:43.967Z,85.86
2024-01-18T17:31:13.569Z,87.10
2024-01-18T17:33:41.866Z,87.24
2024-01-18T17:36:12.694Z,87.35
2024-01-18T17:38:40.654Z,87.33
2024-01-18T17:41:09.131Z,86.24
2024-01-18T17:43:38.379Z,86.80
2024-01-18T17:46:10.738Z,86.73
2024-01-18T17:48:39.555Z,87.06
2024-01-18T17:51:12.682Z,86.57
2024-01-18T17:53:40.613Z,87.08
2024-01-18T17:56:08.905Z,86.30
2024-01-18T17:58:38.300Z,86.03
2024-01-18T18:01:07.753Z,86.49
2024-01-18T18:03:37.962Z,86.20
2024-01-18T18:06:06.473Z,86.67
2024-01-18T18:08:34.879Z,85.40
2024-01-18T18:11:05.694Z,86.14
2024-01-18T18:13:35.446Z,87.01
2024-01-18T18:16:06.517Z,86.72
2024-01-18T18:18:35.700Z,85.12
2024-01-18T18:21:05.749Z,84.68
2024-01-18T18:23:33.738Z,85.43
2024-01-18T18:26:07.634Z,85.72
2024-01-18T18:28:36.812Z,86.53
2024-01-18T18:31:06.659Z,85.25
2024-01-18T18:33:34.719Z,86.03
2024-01-18T18:36:04.023Z,86.17
2024-01-18T18:38:33.642Z,86.24
2024-01-18T18:41:04.276Z,84.84
2024-01-18T18:43:32.357Z,85.54
2024-01-18T18:46:00.746Z,85.23
2024-01-18T18:48:30.990Z,85.20
2024-01-18T18:51:00.378Z,84.74
2024-01-18T18:53:28.490Z,85.19
2024-01-18T18:55:56.314Z,85.35
2024-01-18T18:58:24.287Z,86.40
2024-01-18T19:00:52.221Z,85.38
2024-01-18T19:03:20.721Z,86.02
2024-01-18T19:05:52.536Z,86.23
2024-01-18T19:08:20.884Z,86.42
2024-01-18T19:10:51.450Z,85.99
2024-01-18T19:13:20.888Z,84.46
2024-01-18T19:15:48.700Z,85.66
2024-01-18T19:18:16.957Z,85.70
2024-01-18T19:20:45.119Z,84.91
2024-01-18T19:23:14.964Z,85.78
2024-01-18T19:25:43.142Z,85.28
2024-01-18T19:28:11.589Z,85.22
2024-01-18T19:30:39.572Z,85.67
2024-01-18T19:33:10.152Z,85.43
2024-01-18T19:35:38.152Z,85.10
2024-01-18T19:38:08.910Z,85.88
2024-01-18T19:40:38.156Z,85.70
2024-01-18T19:43:06.446Z,85.71
2024-01-18T19:45:34.310Z,86.32
2024-01-18T19:48:02.207Z,86.13
2024-01-18T19:50:30.452Z,85.94
2024-01-18T19:52:59.564Z,85.90
2024-01-18T19:55:27.799Z,86.06
2024-01-18T19:57:58.100Z,86.44
2024-01-18T20:00:28.040Z,87.18
2024-01-18T20:02:56.554Z,86.97
2024-01-18T20:05:25.156Z,86.49
2024-01-18T20:07:53.687Z,87.69
2024-01-18T20:10:22.939Z,87.54
2024-01-18T20:12:50.989Z,87.35
2024-01-18T20:15:20.294Z,87.98
2024-01-18T20:17:49.598Z,88.36
2024-01-18T20:20:18.142Z,88.67
2024-01-18T20:22:46.341Z,89.14
2024-01-18T20:25:15.889Z,89.28
2024-01-18T20:27:44.614Z,88.98
2024-01-18T20:30:14.108Z,88.10
2024-01-18T20:32:45.074Z,87.75
2024-01-18T20:35:13.048Z,87.12
2024-01-18T20:37:41.074Z,86.71
2024-01-18T20:40:11.212Z,86.63
2024-01-18T20:42:39.023Z,87.02
2024-01-18T20:45:11.249Z,87.21
2024-01-18T20:47:39.301Z,87.19
2024-01-18T20:50:10.080Z,87.80
2024-01-18T20:52:38.421Z,88.17
2024-01-18T20:55:07.018Z,87.88
2024-01-18T20:57:35.015Z,88.31
2024-01-18T21:00:02.858Z,88.14
2024-01-18T21:02:31.861Z,88.18
2024-01-18T21:04:59.921Z,87.80
2024-01-18T21:07:30.530Z,88.26
2024-01-18T21:09:58.364Z,88.33
2024-01-18T21:12:26.432Z,88.06
2024-01-18T21:14:54.399Z,88.13
2024-01-18T21:17:22.291Z,88.74
2024-01-18T21:19:50.233Z,88.83
2024-01-18T21:22:18.132Z,88.91
2024-01-18T21:24:47.371Z,88.83
2024-01-18T21:27:15.497Z,89.20
2024-01-18T21:29:43.353Z,89.35
2024-01-18T21:32:11.329Z,89.12
2024-01-18T21:34:39.438Z,89.34
2024-01-18T21:37:07.726Z,88.85
2024-01-18T21:39:35.695Z,89.86
2024-01-18T21:42:05.363Z,89.00
2024-01-18T21:44:35.157Z,89.45
2024-01-18T21:47:03.655Z,89.26
2024-01-18T21:49:32.017Z,89.26
2024-01-18T21:52:00.287Z,89.69
2024-01-18T21:54:28.292Z,89.61
2024-01-18T21:56:56.299Z,89.56
2024-01-18T21:59:36.017Z,89.44
2024-01-18T22:02:12.839Z,89.91
2024-01-18T22:04:41.540Z,89.64
2024-01-18T22:07:11.458Z,90.41
2024-01-18T22:09:42.503Z,89.99
2024-01-18T22:12:11.924Z,90.32
2024-01-18T22:14:41.779Z,89.69
2024-01-18T22:17:10.867Z,89.69
2024-01-18T22:19:46.675Z,90.24
2024-01-18T22:22:23.068Z,89.88
2024-01-18T22:24:51.652Z,89.93
2024-01-18T22:27:19.828Z,89.99
2024-01-18T22:29:49.211Z,89.82
2024-01-18T22:32:17.748Z,89.66
2024-01-18T22:34:46.968Z,89.68
2024-01-18T22:37:15.672Z,89.62
2024-01-18T22:39:43.597Z,90.34
2024-01-18T22:42:11.521Z,89.90
2024-01-18T22:44:39.519Z,90.05
2024-01-18T22:47:10.632Z,89.85
2024-01-18T22:49:40.542Z,89.93
2024-01-18T22:52:10.808Z,90.85
2024-01-18T22:54:38.681Z,90.39
2024-01-18T22:57:06.939Z,90.29
2024-01-18T22:59:34.822Z,90.75
2024-01-18T23:02:02.668Z,90.92
2024-01-18T23:04:31.941Z,91.74
2024-01-18T23:06:59.748Z,91.39
2024-01-18T23:09:27.587Z,91.26
2024-01-18T23:11:54.598Z,90.48
2024-01-18T23:14:22.860Z,90.23
2024-01-18T23:16:50.766Z,89.99
2024-01-18T23:19:18.623Z,88.99
2024-01-18T23:21:47.981Z,89.15
2024-01-18T23:24:15.977Z,88.56
2024-01-18T23:26:47.395Z,88.34
2024-01-18T23:29:15.489Z,88.30
2024-01-18T23:31:43.364Z,87.42
2024-01-18T23:34:11.883Z,86.82
2024-01-18T23:36:39.990Z,86.43
2024-01-18T23:39:12.114Z,86.06
2024-01-18T23:41:40.345Z,84.87
2024-01-18T23:44:10.852Z,84.58
2024-01-18T23:46:41.530Z,84.54
2024-01-18T23:49:10.130Z,83.60
2024-01-18T23:51:38.351Z,84.41
2024-01-18T23:54:08.187Z,84.47
2024-01-18T23:56:37.505Z,84.58
2024-01-18T23:59:05.827Z,84.52
